sensor_id;sensor_type;location;lat;lon;timestamp;pressure;altitude;pressure_sealevel;temperature;humidity
47220;BME280;32961;51.936;4.788;2023-04-29T00:01:08;101522.13;;;9.32;100.00
47220;BME280;32961;51.936;4.788;2023-04-29T00:03:37;101523.22;;;9.29;100.00
47220;BME280;32961;51.936;4.788;2023-04-29T00:06:06;101529.03;;;9.36;100.00
47220;BME280;32961;51.936;4.788;2023-04-29T00:08:33;101531.88;;;9.35;100.00
47220;BME280;32961;51.936;4.788;2023-04-29T00:11:02;101532.09;;;9.31;100.00
47220;BME280;32961;51.936;4.788;2023-04-29T00:13:30;101532.44;;;9.27;100.00
47220;BME280;32961;51.936;4.788;2023-04-29T00:15:58;101534.31;;;9.26;100.00
47220;BME280;32961;51.936;4.788;2023-04-29T00:18:25;101534.09;;;9.29;100.00
47220;BME280;32961;51.936;4.788;2023-04-29T00:20:55;101533.47;;;9.26;100.00
47220;BME280;32961;51.936;4.788;2023-04-29T00:23:23;101526.31;;;9.25;100.00
47220;BME280;32961;51.936;4.788;2023-04-29T00:25:50;101523.81;;;9.22;100.00
47220;BME280;32961;51.936;4.788;2023-04-29T00:28:19;101527.41;;;9.22;100.00
47220;BME280;32961;51.936;4.788;2023-04-29T00:30:47;101534.53;;;9.23;100.00
47220;BME280;32961;51.936;4.788;2023-04-29T00:33:15;101532.66;;;9.12;100.00
47220;BME280;32961;51.936;4.788;2023-04-29T00:35:42;101525.53;;;9.11;100.00
47220;BME280;32961;51.936;4.788;2023-04-29T00:38:12;101542.06;;;9.20;100.00
47220;BME280;32961;51.936;4.788;2023-04-29T00:40:39;101535.88;;;9.18;100.00
47220;BME280;32961;51.936;4.788;2023-04-29T00:43:09;101537.50;;;9.20;100.00
47220;BME280;32961;51.936;4.788;2023-04-29T00:45:36;101538.59;;;9.18;100.00
47220;BME280;32961;51.936;4.788;2023-04-29T00:48:05;101540.06;;;9.10;100.00
47220;BME280;32961;51.936;4.788;2023-04-29T00:50:33;101547.72;;;9.17;100.00
47220;BME280;32961;51.936;4.788;2023-04-29T00:53:02;101545.22;;;9.13;100.00
47220;BME280;32961;51.936;4.788;2023-04-29T00:55:32;101546.09;;;9.14;100.00
47220;BME280;32961;51.936;4.788;2023-04-29T00:58:00;101558.41;;;9.07;100.00
47220;BME280;32961;51.936;4.788;2023-04-29T01:00:31;101547.84;;;8.91;100.00
47220;BME280;32961;51.936;4.788;2023-04-29T01:02:59;101558.44;;;8.94;100.00
47220;BME280;32961;51.936;4.788;2023-04-29T01:05:28;101553.50;;;8.88;100.00
47220;BME280;32961;51.936;4.788;2023-04-29T01:08:08;101560.31;;;8.93;100.00
47220;BME280;32961;51.936;4.788;2023-04-29T01:10:43;101556.28;;;8.99;100.00
47220;BME280;32961;51.936;4.788;2023-04-29T01:13:17;101561.44;;;9.02;100.00
47220;BME280;32961;51.936;4.788;2023-04-29T01:15:46;101572.28;;;9.02;100.00
47220;BME280;32961;51.936;4.788;2023-04-29T01:18:19;101575.63;;;9.06;100.00
47220;BME280;32961;51.936;4.788;2023-04-29T01:20:50;101568.25;;;9.08;100.00
47220;BME280;32961;51.936;4.788;2023-04-29T01:23:18;101575.47;;;8.96;100.00
47220;BME280;32961;51.936;4.788;2023-04-29T01:25:47;101570.94;;;8.96;100.00
47220;BME280;32961;51.936;4.788;2023-04-29T01:28:28;101575.25;;;8.99;100.00
47220;BME280;32961;51.936;4.788;2023-04-29T01:31:10;101581.19;;;9.04;100.00
47220;BME280;32961;51.936;4.788;2023-04-29T01:33:49;101579.88;;;9.10;100.00
47220;BME280;32961;51.936;4.788;2023-04-29T01:36:29;101584.53;;;9.08;100.00
47220;BME280;32961;51.936;4.788;2023-04-29T01:39:03;101586.25;;;9.09;100.00
47220;BME280;32961;51.936;4.788;2023-04-29T01:41:41;101586.13;;;9.10;100.00
47220;BME280;32961;51.936;4.788;2023-04-29T01:44:14;101592.53;;;9.09;100.00
47220;BME280;32961;51.936;4.788;2023-04-29T01:46:48;101585.84;;;9.02;100.00
47220;BME280;32961;51.936;4.788;2023-04-29T01:49:19;101587.59;;;9.03;100.00
47220;BME280;32961;51.936;4.788;2023-04-29T01:51:47;101596.22;;;9.08;100.00
47220;BME280;32961;51.936;4.788;2023-04-29T01:54:14;101588.97;;;9.09;100.00
47220;BME280;32961;51.936;4.788;2023-04-29T01:56:44;101599.28;;;9.04;100.00
47220;BME280;32961;51.936;4.788;2023-04-29T01:59:12;101585.84;;;9.02;100.00
47220;BME280;32961;51.936;4.788;2023-04-29T02:01:42;101589.31;;;9.04;100.00
47220;BME280;32961;51.936;4.788;2023-04-29T02:04:10;101589.44;;;9.03;100.00
47220;BME280;32961;51.936;4.788;2023-04-29T02:06:38;101583.91;;;9.04;100.00
47220;BME280;32961;51.936;4.788;2023-04-29T02:09:06;101586.19;;;8.97;100.00
47220;BME280;32961;51.936;4.788;2023-04-29T02:11:33;101603.00;;;9.03;100.00
47220;BME280;32961;51.936;4.788;2023-04-29T02:14:03;101602.56;;;8.96;100.00
47220;BME280;32961;51.936;4.788;2023-04-29T02:16:30;101600.63;;;8.98;100.00
47220;BME280;32961;51.936;4.788;2023-04-29T02:18:58;101599.53;;;9.01;100.00
47220;BME280;32961;51.936;4.788;2023-04-29T02:21:26;101611.75;;;9.06;100.00
47220;BME280;32961;51.936;4.788;2023-04-29T02:23:54;101620.53;;;9.10;100.00
47220;BME280;32961;51.936;4.788;2023-04-29T02:26:22;101624.84;;;9.12;100.00
47220;BME280;32961;51.936;4.788;2023-04-29T02:28:50;101625.81;;;9.11;100.00
47220;BME280;32961;51.936;4.788;2023-04-29T02:31:20;101624.09;;;9.10;100.00
47220;BME280;32961;51.936;4.788;2023-04-29T02:33:48;101626.56;;;9.13;100.00
47220;BME280;32961;51.936;4.788;2023-04-29T02:36:15;101625.69;;;9.13;100.00
47220;BME280;32961;51.936;4.788;2023-04-29T02:38:44;101635.44;;;9.15;100.00
47220;BME280;32961;51.936;4.788;2023-04-29T02:41:15;101630.03;;;9.15;100.00
47220;BME280;32961;51.936;4.788;2023-04-29T02:43:43;101639.56;;;9.21;100.00
47220;BME280;32961;51.936;4.788;2023-04-29T02:46:11;101643.38;;;9.19;100.00
47220;BME280;32961;51.936;4.788;2023-04-29T02:48:40;101654.94;;;9.21;100.00
47220;BME280;32961;51.936;4.788;2023-04-29T02:51:08;101650.97;;;9.13;100.00
47220;BME280;32961;51.936;4.788;2023-04-29T02:53:36;101647.72;;;9.08;100.00
47220;BME280;32961;51.936;4.788;2023-04-29T02:56:04;101663.53;;;9.14;100.00
47220;BME280;32961;51.936;4.788;2023-04-29T02:58:32;101654.69;;;9.12;100.00
47220;BME280;32961;51.936;4.788;2023-04-29T03:01:00;101655.88;;;9.08;100.00
47220;BME280;32961;51.936;4.788;2023-04-29T03:03:28;101665.28;;;9.15;100.00
47220;BME280;32961;51.936;4.788;2023-04-29T03:05:57;101664.41;;;9.15;100.00
47220;BME280;32961;51.936;4.788;2023-04-29T03:08:25;101666.50;;;9.11;100.00
47220;BME280;32961;51.936;4.788;2023-04-29T03:10:53;101664.63;;;9.12;100.00
47220;BME280;32961;51.936;4.788;2023-04-29T03:13:21;101668.28;;;8.99;100.00
47220;BME280;32961;51.936;4.788;2023-04-29T03:15:49;101669.16;;;9.00;100.00
47220;BME280;32961;51.936;4.788;2023-04-29T03:18:17;101672.59;;;9.02;100.00
47220;BME280;32961;51.936;4.788;2023-04-29T03:20:45;101676.91;;;9.05;100.00
47220;BME280;32961;51.936;4.788;2023-04-29T03:23:14;101677.03;;;9.03;100.00
47220;BME280;32961;51.936;4.788;2023-04-29T03:25:42;101670.41;;;9.07;100.00
47220;BME280;32961;51.936;4.788;2023-04-29T03:28:10;101661.75;;;9.02;100.00
47220;BME280;32961;51.936;4.788;2023-04-29T03:30:38;101672.72;;;9.01;100.00
47220;BME280;32961;51.936;4.788;2023-04-29T03:33:06;101667.03;;;9.04;100.00
47220;BME280;32961;51.936;4.788;2023-04-29T03:35:34;101682.25;;;9.06;100.00
47220;BME280;32961;51.936;4.788;2023-04-29T03:38:02;101681.38;;;9.06;100.00
47220;BME280;32961;51.936;4.788;2023-04-29T03:40:31;101671.75;;;9.02;100.00
47220;BME280;32961;51.936;4.788;2023-04-29T03:42:59;101678.66;;;9.06;100.00
47220;BME280;32961;51.936;4.788;2023-04-29T03:45:27;101681.78;;;9.12;100.00
47220;BME280;32961;51.936;4.788;2023-04-29T03:47:55;101680.91;;;9.12;100.00
47220;BME280;32961;51.936;4.788;2023-04-29T03:50:23;101682.75;;;9.11;100.00
47220;BME280;32961;51.936;4.788;2023-04-29T03:52:51;101694.25;;;9.15;100.00
47220;BME280;32961;51.936;4.788;2023-04-29T03:55:19;101691.41;;;9.17;100.00
47220;BME280;32961;51.936;4.788;2023-04-29T03:57:48;101688.56;;;9.18;100.00
47220;BME280;32961;51.936;4.788;2023-04-29T04:00:16;101668.44;;;9.09;100.00
47220;BME280;32961;51.936;4.788;2023-04-29T04:02:44;101671.03;;;9.11;100.00
47220;BME280;32961;51.936;4.788;2023-04-29T04:05:13;101690.38;;;9.30;100.00
47220;BME280;32961;51.936;4.788;2023-04-29T04:07:40;101697.66;;;9.30;100.00
47220;BME280;32961;51.936;4.788;2023-04-29T04:10:09;101682.94;;;9.21;100.00
47220;BME280;32961;51.936;4.788;2023-04-29T04:12:37;101703.06;;;9.30;100.00
47220;BME280;32961;51.936;4.788;2023-04-29T04:15:08;101698.97;;;9.24;100.00
47220;BME280;32961;51.936;4.788;2023-04-29T04:17:36;101702.22;;;9.29;100.00
47220;BME280;32961;51.936;4.788;2023-04-29T04:20:05;101695.78;;;9.30;100.00
47220;BME280;32961;51.936;4.788;2023-04-29T04:22:32;101707.00;;;9.26;100.00
47220;BME280;32961;51.936;4.788;2023-04-29T04:25:00;101707.53;;;9.31;100.00
47220;BME280;32961;51.936;4.788;2023-04-29T04:27:28;101711.97;;;9.32;100.00
47220;BME280;32961;51.936;4.788;2023-04-29T04:29:56;101714.13;;;9.27;100.00
47220;BME280;32961;51.936;4.788;2023-04-29T04:32:25;101727.47;;;9.30;100.00
47220;BME280;32961;51.936;4.788;2023-04-29T04:34:53;101727.38;;;9.31;100.00
47220;BME280;32961;51.936;4.788;2023-04-29T04:37:21;101727.69;;;9.27;100.00
47220;BME280;32961;51.936;4.788;2023-04-29T04:39:49;101735.38;;;9.33;100.00
47220;BME280;32961;51.936;4.788;2023-04-29T04:42:17;101733.75;;;9.30;100.00
47220;BME280;32961;51.936;4.788;2023-04-29T04:44:45;101739.31;;;9.29;100.00
47220;BME280;32961;51.936;4.788;2023-04-29T04:47:13;101729.16;;;9.20;100.00
47220;BME280;32961;51.936;4.788;2023-04-29T04:49:42;101745.19;;;9.23;100.00
47220;BME280;32961;51.936;4.788;2023-04-29T04:52:10;101759.28;;;9.28;100.00
47220;BME280;32961;51.936;4.788;2023-04-29T04:54:38;101759.00;;;9.20;100.00
47220;BME280;32961;51.936;4.788;2023-04-29T04:57:06;101762.44;;;9.22;100.00
47220;BME280;32961;51.936;4.788;2023-04-29T04:59:34;101763.97;;;9.26;100.00
47220;BME280;32961;51.936;4.788;2023-04-29T05:02:02;101759.50;;;9.25;100.00
47220;BME280;32961;51.936;4.788;2023-04-29T05:04:29;101771.22;;;9.25;100.00
47220;BME280;32961;51.936;4.788;2023-04-29T05:06:59;101766.69;;;9.26;100.00
47220;BME280;32961;51.936;4.788;2023-04-29T05:09:26;101775.31;;;9.31;100.00
47220;BME280;32961;51.936;4.788;2023-04-29T05:11:54;101768.16;;;9.30;100.00
47220;BME280;32961;51.936;4.788;2023-04-29T05:14:24;101779.31;;;9.38;100.00
47220;BME280;32961;51.936;4.788;2023-04-29T05:16:52;101790.81;;;9.42;100.00
47220;BME280;32961;51.936;4.788;2023-04-29T05:19:20;101778.44;;;9.38;99.70
47220;BME280;32961;51.936;4.788;2023-04-29T05:21:48;101790.16;;;9.38;100.00
47220;BME280;32961;51.936;4.788;2023-04-29T05:24:17;101793.97;;;9.36;99.70
47220;BME280;32961;51.936;4.788;2023-04-29T05:26:45;101793.09;;;9.35;100.00
47220;BME280;32961;51.936;4.788;2023-04-29T05:29:15;101792.97;;;9.37;99.99
47220;BME280;32961;51.936;4.788;2023-04-29T05:31:43;101797.34;;;9.39;99.73
47220;BME280;32961;51.936;4.788;2023-04-29T05:34:10;101794.63;;;9.39;99.80
47220;BME280;32961;51.936;4.788;2023-04-29T05:36:38;101804.59;;;9.39;100.00
47220;BME280;32961;51.936;4.788;2023-04-29T05:39:06;101804.84;;;9.36;100.00
47220;BME280;32961;51.936;4.788;2023-04-29T05:41:35;101805.69;;;9.36;100.00
47220;BME280;32961;51.936;4.788;2023-04-29T05:44:03;101808.06;;;9.41;100.00
47220;BME280;32961;51.936;4.788;2023-04-29T05:46:31;101804.72;;;9.37;100.00
47220;BME280;32961;51.936;4.788;2023-04-29T05:48:59;101798.22;;;9.27;100.00
47220;BME280;32961;51.936;4.788;2023-04-29T05:51:27;101808.28;;;9.38;100.00
47220;BME280;32961;51.936;4.788;2023-04-29T05:53:55;101815.88;;;9.45;100.00
47220;BME280;32961;51.936;4.788;2023-04-29T05:56:24;101811.63;;;9.41;100.00
47220;BME280;32961;51.936;4.788;2023-04-29T05:58:54;101828.22;;;9.50;100.00
47220;BME280;32961;51.936;4.788;2023-04-29T06:01:21;101832.41;;;9.54;100.00
47220;BME280;32961;51.936;4.788;2023-04-29T06:03:49;101829.63;;;9.55;100.00
47220;BME280;32961;51.936;4.788;2023-04-29T06:06:17;101845.00;;;9.55;100.00
47220;BME280;32961;51.936;4.788;2023-04-29T06:08:45;101845.00;;;9.55;100.00
47220;BME280;32961;51.936;4.788;2023-04-29T06:11:13;101838.81;;;9.53;100.00
47220;BME280;32961;51.936;4.788;2023-04-29T06:13:41;101843.81;;;9.59;100.00
47220;BME280;32961;51.936;4.788;2023-04-29T06:16:10;101855.75;;;9.56;100.00
47220;BME280;32961;51.936;4.788;2023-04-29T06:18:39;101847.72;;;9.55;100.00
47220;BME280;32961;51.936;4.788;2023-04-29T06:21:06;101859.47;;;9.55;100.00
47220;BME280;32961;51.936;4.788;2023-04-29T06:23:34;101859.34;;;9.57;100.00
47220;BME280;32961;51.936;4.788;2023-04-29T06:26:02;101859.66;;;9.65;100.00
47220;BME280;32961;51.936;4.788;2023-04-29T06:28:30;101861.47;;;9.64;100.00
47220;BME280;32961;51.936;4.788;2023-04-29T06:30:58;101869.50;;;9.66;100.00
47220;BME280;32961;51.936;4.788;2023-04-29T06:33:27;101879.38;;;9.67;100.00
47220;BME280;32961;51.936;4.788;2023-04-29T06:35:55;101884.94;;;9.66;100.00
47220;BME280;32961;51.936;4.788;2023-04-29T06:38:23;101889.06;;;9.71;100.00
47220;BME280;32961;51.936;4.788;2023-04-29T06:40:51;101883.38;;;9.74;100.00
47220;BME280;32961;51.936;4.788;2023-04-29T06:43:19;101882.91;;;9.80;100.00
47220;BME280;32961;51.936;4.788;2023-04-29T06:45:46;101894.94;;;9.89;100.00
47220;BME280;32961;51.936;4.788;2023-04-29T06:48:14;101898.59;;;10.01;100.00
47220;BME280;32961;51.936;4.788;2023-04-29T06:50:49;101898.03;;;9.85;98.62
47220;BME280;32961;51.936;4.788;2023-04-29T06:53:17;101900.78;;;9.96;97.90
47220;BME280;32961;51.936;4.788;2023-04-29T06:55:45;101902.28;;;10.00;98.11
47220;BME280;32961;51.936;4.788;2023-04-29T06:58:13;101911.25;;;10.14;98.82
47220;BME280;32961;51.936;4.788;2023-04-29T07:00:43;101914.94;;;10.12;96.77
47220;BME280;32961;51.936;4.788;2023-04-29T07:03:12;101920.91;;;10.18;96.44
47220;BME280;32961;51.936;4.788;2023-04-29T07:05:40;101915.75;;;10.26;95.85
47220;BME280;32961;51.936;4.788;2023-04-29T07:08:13;101927.38;;;10.28;95.70
47220;BME280;32961;51.936;4.788;2023-04-29T07:10:41;101932.34;;;10.34;95.42
47220;BME280;32961;51.936;4.788;2023-04-29T07:13:08;101925.19;;;10.57;93.99
47220;BME280;32961;51.936;4.788;2023-04-29T07:15:36;101941.50;;;10.57;93.99
47220;BME280;32961;51.936;4.788;2023-04-29T07:18:04;101952.00;;;10.62;91.81
47220;BME280;32961;51.936;4.788;2023-04-29T07:20:35;101943.38;;;10.68;92.71
47220;BME280;32961;51.936;4.788;2023-04-29T07:23:03;101957.59;;;10.72;90.87
47220;BME280;32961;51.936;4.788;2023-04-29T07:25:32;101958.81;;;10.68;89.23
47220;BME280;32961;51.936;4.788;2023-04-29T07:28:00;101960.69;;;10.67;91.14
47220;BME280;32961;51.936;4.788;2023-04-29T07:30:28;101958.97;;;10.78;90.99
47220;BME280;32961;51.936;4.788;2023-04-29T07:32:56;101958.13;;;10.77;90.93
47220;BME280;32961;51.936;4.788;2023-04-29T07:35:24;101963.44;;;10.90;89.98
47220;BME280;32961;51.936;4.788;2023-04-29T07:37:52;101966.94;;;11.03;90.34
47220;BME280;32961;51.936;4.788;2023-04-29T07:40:19;101966.25;;;11.13;87.99
47220;BME280;32961;51.936;4.788;2023-04-29T07:42:49;101967.78;;;11.39;89.43
47220;BME280;32961;51.936;4.788;2023-04-29T07:45:17;101966.91;;;11.62;88.45
47220;BME280;32961;51.936;4.788;2023-04-29T07:47:45;101972.81;;;11.78;86.31
47220;BME280;32961;51.936;4.788;2023-04-29T07:50:13;101966.41;;;11.56;84.16
47220;BME280;32961;51.936;4.788;2023-04-29T07:52:41;101966.53;;;11.44;83.32
47220;BME280;32961;51.936;4.788;2023-04-29T07:55:09;101971.59;;;11.60;84.43
47220;BME280;32961;51.936;4.788;2023-04-29T07:57:37;101974.47;;;11.81;83.62
47220;BME280;32961;51.936;4.788;2023-04-29T08:00:08;101969.00;;;12.03;84.10
47220;BME280;32961;51.936;4.788;2023-04-29T08:02:36;101977.25;;;12.25;81.43
47220;BME280;32961;51.936;4.788;2023-04-29T08:05:04;101978.63;;;12.08;79.28
47220;BME280;32961;51.936;4.788;2023-04-29T08:07:34;101965.94;;;11.97;78.58
47220;BME280;32961;51.936;4.788;2023-04-29T08:10:02;101972.44;;;11.94;80.50
47220;BME280;32961;51.936;4.788;2023-04-29T08:12:30;101966.63;;;12.22;81.10
47220;BME280;32961;51.936;4.788;2023-04-29T08:14:57;101962.78;;;12.24;79.05
47220;BME280;32961;51.936;4.788;2023-04-29T08:17:27;101973.41;;;12.27;77.92
47220;BME280;32961;51.936;4.788;2023-04-29T08:19:55;101966.44;;;12.34;77.86
47220;BME280;32961;51.936;4.788;2023-04-29T08:22:23;101974.28;;;12.60;76.71
47220;BME280;32961;51.936;4.788;2023-04-29T08:24:50;101969.25;;;12.77;76.92
47220;BME280;32961;51.936;4.788;2023-04-29T08:27:19;101979.72;;;12.93;74.09
47220;BME280;32961;51.936;4.788;2023-04-29T08:29:47;101979.97;;;12.90;75.05
47220;BME280;32961;51.936;4.788;2023-04-29T08:32:15;101987.56;;;12.86;73.60
47220;BME280;32961;51.936;4.788;2023-04-29T08:34:44;101986.16;;;12.71;72.67
47220;BME280;32961;51.936;4.788;2023-04-29T08:37:12;101984.75;;;12.76;74.68
47220;BME280;32961;51.936;4.788;2023-04-29T08:39:43;101988.38;;;12.98;76.14
47220;BME280;32961;51.936;4.788;2023-04-29T08:42:13;101994.19;;;13.05;72.45
47220;BME280;32961;51.936;4.788;2023-04-29T08:44:42;101992.69;;;13.00;74.02
47220;BME280;32961;51.936;4.788;2023-04-29T08:47:10;102002.72;;;12.79;72.32
47220;BME280;32961;51.936;4.788;2023-04-29T08:49:40;102003.97;;;12.75;73.33
47220;BME280;32961;51.936;4.788;2023-04-29T08:52:09;102005.19;;;12.82;73.38
47220;BME280;32961;51.936;4.788;2023-04-29T08:54:37;102003.84;;;12.76;72.17
47220;BME280;32961;51.936;4.788;2023-04-29T08:57:05;102005.44;;;12.79;73.07
47220;BME280;32961;51.936;4.788;2023-04-29T08:59:35;102004.94;;;12.85;73.54
47220;BME280;32961;51.936;4.788;2023-04-29T09:02:05;102009.59;;;12.94;74.36
47220;BME280;32961;51.936;4.788;2023-04-29T09:04:40;102011.19;;;12.97;73.04
47220;BME280;32961;51.936;4.788;2023-04-29T09:07:15;102005.13;;;12.93;71.49
47220;BME280;32961;51.936;4.788;2023-04-29T09:09:43;102013.69;;;12.89;72.61
47220;BME280;32961;51.936;4.788;2023-04-29T09:12:11;102011.19;;;12.97;72.37
47220;BME280;32961;51.936;4.788;2023-04-29T09:14:39;102010.13;;;12.88;71.84
47220;BME280;32961;51.936;4.788;2023-04-29T09:17:07;102009.72;;;12.93;72.31
47220;BME280;32961;51.936;4.788;2023-04-29T09:19:35;102009.66;;;13.04;72.28
47220;BME280;32961;51.936;4.788;2023-04-29T09:22:04;102019.19;;;13.10;72.18
47220;BME280;32961;51.936;4.788;2023-04-29T09:24:34;102016.41;;;13.21;70.75
47220;BME280;32961;51.936;4.788;2023-04-29T09:27:02;102010.84;;;13.32;71.31
47220;BME280;32961;51.936;4.788;2023-04-29T09:29:30;102008.72;;;13.36;69.67
47220;BME280;32961;51.936;4.788;2023-04-29T09:31:58;102016.66;;;13.60;69.72
47220;BME280;32961;51.936;4.788;2023-04-29T09:34:30;102000.09;;;13.52;67.05
47220;BME280;32961;51.936;4.788;2023-04-29T09:36:58;102015.59;;;13.83;68.00
47220;BME280;32961;51.936;4.788;2023-04-29T09:39:38;102019.31;;;14.03;66.63
47220;BME280;32961;51.936;4.788;2023-04-29T09:42:06;102025.78;;;13.80;65.20
47220;BME280;32961;51.936;4.788;2023-04-29T09:44:35;102026.13;;;13.87;66.81
47220;BME280;32961;51.936;4.788;2023-04-29T09:47:04;102030.38;;;14.11;67.11
47220;BME280;32961;51.936;4.788;2023-04-29T09:49:34;102040.84;;;13.96;64.63
47220;BME280;32961;51.936;4.788;2023-04-29T09:52:04;102024.72;;;13.93;65.76
47220;BME280;32961;51.936;4.788;2023-04-29T09:54:33;102028.22;;;14.05;66.88
47220;BME280;32961;51.936;4.788;2023-04-29T09:57:04;102030.03;;;14.45;67.24
47220;BME280;32961;51.936;4.788;2023-04-29T09:59:33;102028.81;;;14.69;63.91
47220;BME280;32961;51.936;4.788;2023-04-29T10:02:06;102025.22;;;14.68;63.27
47220;BME280;32961;51.936;4.788;2023-04-29T10:04:38;102035.69;;;14.53;64.24
47220;BME280;32961;51.936;4.788;2023-04-29T10:07:07;102035.94;;;14.40;62.74
47220;BME280;32961;51.936;4.788;2023-04-29T10:09:36;102039.13;;;14.55;63.21
47220;BME280;32961;51.936;4.788;2023-04-29T10:12:08;102030.22;;;14.63;62.95
47220;BME280;32961;51.936;4.788;2023-04-29T10:14:40;102027.03;;;14.48;61.03
47220;BME280;32961;51.936;4.788;2023-04-29T10:17:13;102047.31;;;14.45;62.66
47220;BME280;32961;51.936;4.788;2023-04-29T10:19:46;102049.22;;;14.55;62.04
47220;BME280;32961;51.936;4.788;2023-04-29T10:22:21;102048.63;;;14.51;62.85
47220;BME280;32961;51.936;4.788;2023-04-29T10:24:54;102044.88;;;14.52;63.29
47220;BME280;32961;51.936;4.788;2023-04-29T10:27:26;102048.41;;;14.84;63.43
47220;BME280;32961;51.936;4.788;2023-04-29T10:29:55;102049.13;;;14.96;62.54
47220;BME280;32961;51.936;4.788;2023-04-29T10:32:25;102049.69;;;14.89;60.94
47220;BME280;32961;51.936;4.788;2023-04-29T10:35:10;102060.22;;;14.84;61.81
47220;BME280;32961;51.936;4.788;2023-04-29T10:37:39;102053.75;;;15.05;59.92
47220;BME280;32961;51.936;4.788;2023-04-29T10:40:11;102032.53;;;15.46;61.83
47220;BME280;32961;51.936;4.788;2023-04-29T10:42:44;102030.53;;;15.76;58.92
47220;BME280;32961;51.936;4.788;2023-04-29T10:45:20;102041.84;;;15.53;58.08
47220;BME280;32961;51.936;4.788;2023-04-29T10:48:07;102039.69;;;15.47;59.31
47220;BME280;32961;51.936;4.788;2023-04-29T10:50:40;102053.88;;;15.23;57.85
47220;BME280;32961;51.936;4.788;2023-04-29T10:53:26;102044.66;;;15.14;59.35
47220;BME280;32961;51.936;4.788;2023-04-29T10:55:57;102047.53;;;15.03;59.37
47220;BME280;32961;51.936;4.788;2023-04-29T10:58:44;102034.28;;;14.88;60.03
47220;BME280;32961;51.936;4.788;2023-04-29T11:01:14;102047.84;;;14.90;60.54
47220;BME280;32961;51.936;4.788;2023-04-29T11:03:53;102031.97;;;14.64;58.96
47220;BME280;32961;51.936;4.788;2023-04-29T11:06:38;102043.22;;;14.90;59.31
47220;BME280;32961;51.936;4.788;2023-04-29T11:09:09;102053.59;;;14.97;60.58
47220;BME280;32961;51.936;4.788;2023-04-29T11:11:41;102045.19;;;15.37;58.52
47220;BME280;32961;51.936;4.788;2023-04-29T11:14:12;102041.91;;;15.81;57.33
47220;BME280;32961;51.936;4.788;2023-04-29T11:16:47;102053.34;;;16.14;55.38
47220;BME280;32961;51.936;4.788;2023-04-29T11:19:16;102039.25;;;16.37;55.50
47220;BME280;32961;51.936;4.788;2023-04-29T11:21:44;102053.22;;;16.62;54.57
47220;BME280;32961;51.936;4.788;2023-04-29T11:24:13;102045.88;;;16.80;52.72
47220;BME280;32961;51.936;4.788;2023-04-29T11:26:44;102038.50;;;16.99;53.82
47220;BME280;32961;51.936;4.788;2023-04-29T11:29:13;102042.72;;;17.29;53.49
47220;BME280;32961;51.936;4.788;2023-04-29T11:31:41;102038.53;;;17.43;52.09
47220;BME280;32961;51.936;4.788;2023-04-29T11:34:09;102037.09;;;17.57;50.31
47220;BME280;32961;51.936;4.788;2023-04-29T11:36:37;102036.69;;;17.78;50.39
47220;BME280;32961;51.936;4.788;2023-04-29T11:39:05;102029.47;;;18.04;50.13
47220;BME280;32961;51.936;4.788;2023-04-29T11:41:33;102037.59;;;18.22;50.53
47220;BME280;32961;51.936;4.788;2023-04-29T11:44:01;102034.53;;;18.25;50.04
47220;BME280;32961;51.936;4.788;2023-04-29T11:46:33;102046.94;;;17.94;48.26
47220;BME280;32961;51.936;4.788;2023-04-29T11:49:01;102044.72;;;17.72;49.15
47220;BME280;32961;51.936;4.788;2023-04-29T11:51:29;102042.66;;;17.21;47.60
47220;BME280;32961;51.936;4.788;2023-04-29T11:53:58;102046.56;;;17.37;49.05
47220;BME280;32961;51.936;4.788;2023-04-29T11:56:26;102044.53;;;17.39;49.06
47220;BME280;32961;51.936;4.788;2023-04-29T11:58:54;102037.13;;;16.95;46.77
47220;BME280;32961;51.936;4.788;2023-04-29T12:01:28;102034.66;;;17.10;49.94
47220;BME280;32961;51.936;4.788;2023-04-29T12:04:11;102025.81;;;17.42;51.21
47220;BME280;32961;51.936;4.788;2023-04-29T12:06:39;102028.50;;;17.34;50.47
47220;BME280;32961;51.936;4.788;2023-04-29T12:09:07;102040.88;;;17.12;48.90
47220;BME280;32961;51.936;4.788;2023-04-29T12:11:37;102041.31;;;16.89;49.53
47220;BME280;32961;51.936;4.788;2023-04-29T12:14:05;102038.75;;;17.06;51.85
47220;BME280;32961;51.936;4.788;2023-04-29T12:16:33;102049.94;;;17.30;49.63
47220;BME280;32961;51.936;4.788;2023-04-29T12:19:01;102045.44;;;17.47;46.37
47220;BME280;32961;51.936;4.788;2023-04-29T12:21:32;102035.53;;;17.55;47.98
47220;BME280;32961;51.936;4.788;2023-04-29T12:24:01;102041.84;;;17.81;47.68
47220;BME280;32961;51.936;4.788;2023-04-29T12:26:30;102041.97;;;17.72;46.94
47220;BME280;32961;51.936;4.788;2023-04-29T12:28:58;102046.66;;;17.53;47.22
47220;BME280;32961;51.936;4.788;2023-04-29T12:31:33;102053.59;;;17.65;46.26
47220;BME280;32961;51.936;4.788;2023-04-29T12:34:02;102048.75;;;17.33;44.43
47220;BME280;32961;51.936;4.788;2023-04-29T12:36:36;102054.91;;;17.53;44.57
47220;BME280;32961;51.936;4.788;2023-04-29T12:39:05;102045.00;;;17.34;42.95
47220;BME280;32961;51.936;4.788;2023-04-29T12:41:36;102044.41;;;17.48;43.93
47220;BME280;32961;51.936;4.788;2023-04-29T12:44:05;102059.75;;;17.59;43.14
47220;BME280;32961;51.936;4.788;2023-04-29T12:46:33;102043.16;;;17.69;43.67
47220;BME280;32961;51.936;4.788;2023-04-29T12:49:02;102062.03;;;17.90;43.35
47220;BME280;32961;51.936;4.788;2023-04-29T12:51:31;102048.50;;;17.97;41.90
47220;BME280;32961;51.936;4.788;2023-04-29T12:54:01;102067.31;;;18.10;42.64
47220;BME280;32961;51.936;4.788;2023-04-29T12:56:29;102056.66;;;17.80;41.64
47220;BME280;32961;51.936;4.788;2023-04-29T12:59:04;102061.84;;;17.92;42.40
47220;BME280;32961;51.936;4.788;2023-04-29T13:01:32;102060.44;;;18.14;43.63